Time;durP1;ratioP1;P1;durP2;ratioP2;P2;SDS_P1;SDS_P2;PMS_P1;PMS_P2;Temp;Humidity;BMP_temperature;BMP_pressure;BME280_temperature;BME280_humidity;BME280_pressure;Samples;Min_cycle;Max_cycle;Signal;HPM_P1;HPM_P2
2022/04/22 00:01:30;;;;;;;;;6.67;4.00;;;;;21.03;33.04;99892.38;5076815;28;52601;-60
2022/04/22 00:03:56;;;;;;;;;4.25;3.75;;;;;21.03;32.59;99892.38;5077165;28;45432;-60
2022/04/22 00:06:22;;;;;;;;;4.75;3.50;;;;;21.03;32.48;99895.00;5077645;28;45481;-60
2022/04/22 00:08:47;;;;;;;;;2.00;2.00;;;;;20.99;32.87;99883.88;5077738;28;45450;-61
2022/04/22 00:11:31;;;;;;;;;4.25;2.50;;;;;21.01;32.83;99887.22;5076874;28;45353;-60
2022/04/22 00:13:59;;;;;;;;;4.00;4.00;;;;;21.03;32.42;99895.00;5077073;28;45382;-63
2022/04/22 00:16:26;;;;;;;;;3.75;3.75;;;;;21.00;33.01;99889.00;5077112;28;45335;-60
2022/04/22 00:18:51;;;;;;;;;3.00;3.00;;;;;21.03;32.64;99895.00;5077578;28;45358;-61
2022/04/22 00:21:17;;;;;;;;;3.00;3.00;;;;;21.03;32.67;99895.00;5075374;28;45418;-61
2022/04/22 00:23:42;;;;;;;;;4.00;4.00;;;;;21.01;33.08;99888.06;5076886;28;45253;-60
2022/04/22 00:26:08;;;;;;;;;4.00;4.00;;;;;21.01;33.07;99893.31;5076308;28;45275;-60
2022/04/22 00:28:34;;;;;;;;;4.00;4.00;;;;;21.01;32.65;99884.59;5076548;28;45583;-60
2022/04/22 00:30:59;;;;;;;;;2.00;2.00;;;;;20.99;32.63;99884.72;5058460;28;47130;-62
2022/04/22 00:33:24;;;;;;;;;1.50;1.50;;;;;21.01;32.93;99881.97;5076754;28;45489;-61
2022/04/22 00:35:50;;;;;;;;;3.00;3.00;;;;;21.00;33.08;99889.00;5077039;28;45394;-60
2022/04/22 00:38:15;;;;;;;;;4.75;3.75;;;;;21.01;32.85;99881.97;5076972;28;45303;-60
2022/04/22 00:40:41;;;;;;;;;3.00;3.00;;;;;21.00;32.90;99878.47;5076652;28;46178;-61
2022/04/22 00:43:18;;;;;;;;;4.00;4.00;;;;;21.00;32.71;99882.91;5076476;28;45294;-60
2022/04/22 00:45:43;;;;;;;;;3.00;2.75;;;;;21.00;32.53;99880.28;5076624;28;45470;-60
2022/04/22 00:48:09;;;;;;;;;3.00;3.00;;;;;20.97;32.55;99878.72;5076845;28;45501;-60
2022/04/22 00:50:35;;;;;;;;;4.00;4.00;;;;;21.00;32.78;99883.75;5076355;28;45455;-60
2022/04/22 00:53:01;;;;;;;;;2.00;2.00;;;;;20.97;33.01;99878.72;5076565;28;45192;-60
2022/04/22 00:55:28;;;;;;;;;5.00;4.50;;;;;21.00;32.94;99881.09;5076714;28;45361;-60
2022/04/22 00:57:53;;;;;;;;;3.00;3.00;;;;;20.97;32.81;99878.72;5077087;28;45521;-61
2022/04/22 01:00:20;;;;;;;;;3.00;3.00;;;;;20.99;32.75;99879.44;5076366;28;45381;-59
2022/04/22 01:02:45;;;;;;;;;3.25;2.50;;;;;20.99;32.80;99874.19;5076320;28;45378;-60
2022/04/22 01:10:38;;;;;;;;;3.50;2.50;;;;;20.99;33.01;99865.41;5076066;28;45664;-60
2022/04/22 01:13:07;;;;;;;;;3.25;2.25;;;;;20.99;32.73;99868.91;5076282;28;45456;-60
2022/04/22 01:15:34;;;;;;;;;3.00;3.00;;;;;20.99;32.78;99866.28;5076247;28;45438;-60
2022/04/22 01:18:00;;;;;;;;;3.50;3.00;;;;;20.97;33.05;99862.91;5076543;28;45517;-59
2022/04/22 01:20:25;;;;;;;;;3.00;3.00;;;;;20.99;32.72;99862.78;5076479;28;46195;-60
2022/04/22 01:22:50;;;;;;;;;2.00;2.00;;;;;20.98;32.86;99861.09;5076232;28;45266;-60
2022/04/22 01:25:16;;;;;;;;;2.00;2.00;;;;;20.99;32.63;99865.41;5076236;28;45286;-60
2022/04/22 01:27:42;;;;;;;;;5.00;4.00;;;;;20.96;33.07;99855.97;5076307;28;45503;-60
2022/04/22 01:30:07;;;;;;;;;3.75;2.50;;;;;20.98;33.17;99856.69;5075795;28;45931;-60
2022/04/22 01:32:33;;;;;;;;;5.00;4.00;;;;;20.98;32.96;99856.69;5075441;28;45235;-60
2022/04/22 01:34:59;;;;;;;;;3.00;3.00;;;;;20.96;33.22;99848.06;5076163;28;45166;-60
2022/04/22 01:37:24;;;;;;;;;3.00;3.00;;;;;20.98;33.05;99846.16;5079574;28;45663;-59
2022/04/22 01:39:50;;;;;;;;;4.00;3.00;;;;;20.97;33.32;99841.84;5079511;28;46018;-60
2022/04/22 01:42:18;;;;;;;;;2.75;2.75;;;;;20.99;33.33;99846.97;5079298;28;45378;-60
2022/04/22 01:44:44;;;;;;;;;2.25;2.25;;;;;20.98;32.74;99838.25;5079415;28;45379;-61
2022/04/22 01:47:09;;;;;;;;;3.00;3.00;;;;;20.95;33.16;99830.56;5079618;28;45464;-60
2022/04/22 01:49:34;;;;;;;;;3.00;3.00;;;;;20.99;32.78;99846.97;5079050;28;46549;-60
2022/04/22 01:52:00;;;;;;;;;4.75;4.00;;;;;20.98;33.02;99832.97;5079255;28;45393;-60
2022/04/22 01:54:26;;;;;;;;;3.75;3.75;;;;;20.98;33.13;99838.25;5079576;28;45439;-60
2022/04/22 01:56:51;;;;;;;;;4.75;3.00;;;;;20.99;32.79;99844.34;5079428;28;45477;-60
2022/04/22 01:59:16;;;;;;;;;4.00;4.00;;;;;20.98;33.35;99834.75;5078887;28;46106;-61
2022/04/22 02:01:41;;;;;;;;;3.00;3.00;;;;;20.97;33.32;99839.19;5078912;28;45421;-61
2022/04/22 02:04:07;;;;;;;;;3.75;3.75;;;;;20.97;32.89;99833.94;5079045;28;45314;-61
2022/04/22 02:06:32;;;;;;;;;4.75;4.00;;;;;20.97;33.47;99825.19;5079240;28;45568;-60
2022/04/22 02:08:58;;;;;;;;;4.00;4.00;;;;;20.97;32.94;99828.66;5079087;28;46211;-61
2022/04/22 02:11:23;;;;;;;;;3.00;2.00;;;;;20.95;33.03;99825.31;5078938;28;45285;-61
2022/04/22 02:13:48;;;;;;;;;3.25;3.25;;;;;20.97;33.35;99827.81;5079018;28;45350;-61
2022/04/22 02:16:14;;;;;;;;;2.00;2.00;;;;;20.97;32.89;99826.03;5078912;28;45479;-61
2022/04/22 02:18:41;;;;;;;;;4.00;3.00;;;;;20.96;32.89;99823.50;5078717;28;47095;-61
2022/04/22 02:21:08;;;;;;;;;3.00;3.00;;;;;20.95;32.92;99821.81;5060603;28;45700;-61
2022/04/22 02:23:34;;;;;;;;;3.00;3.00;;;;;20.96;32.97;99820.84;5078757;28;45346;-61
2022/04/22 02:26:00;;;;;;;;;5.00;3.75;;;;;20.97;32.99;99827.81;5078903;28;45655;-59
2022/04/22 02:28:31;;;;;;;;;3.00;3.00;;;;;20.95;33.23;99819.16;5078860;28;45256;-61
2022/04/22 02:31:07;;;;;;;;;3.00;3.00;;;;;20.96;33.45;99820.84;5079041;28;45769;-61
2022/04/22 02:33:35;;;;;;;;;3.25;3.25;;;;;20.97;33.22;99823.41;5078824;28;45306;-62
2022/04/22 02:36:01;;;;;;;;;3.00;3.00;;;;;20.95;33.22;99806.84;5078900;28;45343;-61
2022/04/22 02:38:28;;;;;;;;;4.00;3.00;;;;;20.96;33.08;99808.53;5078751;28;45314;-60
2022/04/22 02:46:23;;;;;;;;;3.75;2.00;;;;;20.96;33.27;99810.31;5078677;28;45352;-61
2022/04/22 02:48:48;;;;;;;;;3.00;3.00;;;;;20.96;33.23;99815.59;5077650;28;46265;-62
2022/04/22 02:51:13;;;;;;;;;3.00;3.00;;;;;20.96;33.60;99824.34;5078311;28;45378;-60
2022/04/22 02:53:39;;;;;;;;;3.50;2.75;;;;;20.96;33.16;99807.69;5078307;28;45330;-61
2022/04/22 02:56:05;;;;;;;;;2.00;2.00;;;;;20.96;33.06;99810.31;5078478;28;45336;-61
2022/04/22 02:58:31;;;;;;;;;5.75;4.00;;;;;20.96;33.23;99812.97;5078147;28;46184;-60
2022/04/22 03:00:56;;;;;;;;;4.00;3.00;;;;;20.94;33.19;99802.53;5078554;28;45341;-60
2022/04/22 03:03:22;;;;;;;;;6.25;3.50;;;;;20.95;33.53;99809.50;5078132;28;45307;-61
2022/04/22 03:05:47;;;;;;;;;3.75;3.25;;;;;20.96;33.08;99800.66;5078258;28;45284;-60
2022/04/22 03:08:13;;;;;;;;;3.00;3.00;;;;;20.96;33.19;99805.06;5078056;28;45954;-60
2022/04/22 03:10:38;;;;;;;;;4.50;3.25;;;;;20.94;33.55;99797.28;5077891;28;45323;-61
2022/04/22 03:13:04;;;;;;;;;3.00;3.00;;;;;20.95;33.16;99793.69;5078150;28;45367;-61
2022/04/22 03:15:32;;;;;;;;;3.00;3.00;;;;;20.96;33.25;99789.25;5078547;28;45367;-61
2022/04/22 03:17:58;;;;;;;;;4.50;4.00;;;;;20.96;33.19;99792.75;5078188;28;45669;-61
2022/04/22 03:20:23;;;;;;;;;3.00;3.00;;;;;20.95;33.22;99804.22;5077776;28;45343;-61
2022/04/22 03:22:48;;;;;;;;;4.00;2.75;;;;;20.95;33.76;99798.97;5077934;28;45278;-61
2022/04/22 03:25:14;;;;;;;;;3.50;3.25;;;;;20.96;33.82;99803.28;5078014;28;45500;-61
2022/04/22 03:27:39;;;;;;;;;3.00;3.00;;;;;20.95;33.16;99804.22;5077673;28;46932;-61
2022/04/22 03:30:05;;;;;;;;;3.50;3.50;;;;;20.95;33.65;99793.69;5077813;28;45430;-61
2022/04/22 03:32:30;;;;;;;;;3.00;3.00;;;;;20.95;33.35;99792.84;5078126;28;45462;-61
2022/04/22 03:34:56;;;;;;;;;3.00;3.00;;;;;20.95;33.88;99791.06;5078133;28;45336;-61
2022/04/22 03:37:21;;;;;;;;;4.00;3.00;;;;;20.96;33.34;99798.00;5077405;28;45377;-61
2022/04/22 03:39:46;;;;;;;;;2.33;2.00;;;;;20.97;33.70;99790.94;5077162;28;52720;-61
2022/04/22 03:42:12;;;;;;;;;4.25;3.25;;;;;20.96;33.65;99795.38;5077617;28;45393;-61
2022/04/22 03:44:37;;;;;;;;;4.50;4.00;;;;;20.95;33.72;99788.41;5077737;28;45397;-60
2022/04/22 03:47:03;;;;;;;;;5.00;5.00;;;;;20.96;33.54;99794.50;5077340;28;46102;-61
2022/04/22 03:49:30;;;;;;;;;4.25;4.00;;;;;20.96;33.22;99790.09;5077790;28;45371;-62
2022/04/22 03:51:56;;;;;;;;;5.75;3.25;;;;;20.95;33.73;99791.06;5077469;28;45193;-61
2022/04/22 03:54:24;;;;;;;;;4.50;3.00;;;;;20.96;33.72;99778.72;5077661;28;45423;-61
2022/04/22 03:59:35;;;;;;;;;5.50;3.25;;;;;20.95;33.47;99788.41;5076296;28;45800;-60
2022/04/22 04:02:00;;;;;;;;;3.00;3.00;;;;;20.95;33.87;99787.56;5077537;28;45516;-60
2022/04/22 04:04:26;;;;;;;;;5.00;3.00;;;;;20.93;33.41;99776.31;5059221;28;45413;-60
2022/04/22 04:06:51;;;;;;;;;5.75;4.00;;;;;20.95;33.27;99782.28;5077012;28;45369;-61
2022/04/22 04:17:34;;;;;;;;;4.50;3.00;;;;;20.94;33.75;99780.66;5076790;28;45262;-60
2022/04/22 04:25:28;;;;;;;;;3.75;3.00;;;;;20.93;33.90;99778.97;5076956;28;45391;-60
2022/04/22 04:27:53;;;;;;;;;3.00;3.00;;;;;20.92;33.70;99775.47;5076698;28;47066;-58
2022/04/22 04:30:19;;;;;;;;;5.00;4.00;;;;;20.93;33.83;99769.25;5076817;28;45292;-60
2022/04/22 04:32:45;;;;;;;;;2.75;2.75;;;;;20.93;33.36;99777.16;5076868;28;45397;-58
2022/04/22 04:35:10;;;;;;;;;4.25;4.00;;;;;20.93;33.90;99774.53;5077157;28;45256;-60
2022/04/22 04:37:41;;;;;;;;;3.75;3.75;;;;;20.91;33.62;99765.88;5076728;28;45391;-59
2022/04/22 04:40:07;;;;;;;;;5.00;4.00;;;;;20.93;33.79;99774.53;5076532;28;45453;-60
2022/04/22 04:42:32;;;;;;;;;4.00;4.00;;;;;20.92;33.37;99767.56;5077018;28;45431;-59
2022/04/22 04:44:58;;;;;;;;;4.00;3.00;;;;;20.92;33.23;99772.84;5076949;28;45316;-59
2022/04/22 04:47:23;;;;;;;;;3.25;3.25;;;;;20.92;33.87;99772.84;5076455;28;45919;-60
2022/04/22 04:49:48;;;;;;;;;3.75;3.75;;;;;20.93;33.81;99771.06;5076531;28;45397;-60
2022/04/22 04:52:14;;;;;;;;;3.25;3.25;;;;;20.91;33.78;99771.16;5076669;28;45343;-61
2022/04/22 04:54:40;;;;;;;;;3.00;3.00;;;;;20.93;33.76;99774.53;5076866;28;45564;-61
2022/04/22 04:57:06;;;;;;;;;4.50;4.50;;;;;20.92;33.87;99769.38;5076623;28;46479;-60
2022/04/22 04:59:32;;;;;;;;;5.00;3.25;;;;;20.92;33.53;99772.84;5076656;28;45362;-60
2022/04/22 05:01:57;;;;;;;;;4.00;4.00;;;;;20.91;33.70;99765.88;5076625;28;45304;-60
2022/04/22 05:04:23;;;;;;;;;4.00;3.00;;;;;20.93;33.89;99758.72;5076647;28;45219;-60
2022/04/22 05:06:48;;;;;;;;;3.00;2.00;;;;;20.92;33.31;99762.31;5076167;28;46736;-62
2022/04/22 05:09:14;;;;;;;;;4.00;3.25;;;;;20.92;33.62;99757.03;5076256;28;45359;-61
2022/04/22 05:11:39;;;;;;;;;4.75;4.00;;;;;20.92;33.95;99758.84;5078243;28;45231;-60
2022/04/22 05:14:06;;;;;;;;;4.75;4.75;;;;;20.91;33.41;99755.34;5080388;28;45263;-61
2022/04/22 05:16:32;;;;;;;;;6.00;4.25;;;;;20.92;33.38;99754.41;5079741;28;46370;-61
2022/04/22 05:18:58;;;;;;;;;3.75;3.75;;;;;20.91;33.40;99744.81;5079657;28;45467;-60
2022/04/22 05:21:23;;;;;;;;;3.00;3.00;;;;;20.91;33.56;99750.09;5079821;28;45333;-60
2022/04/22 05:23:49;;;;;;;;;4.00;4.00;;;;;20.92;33.64;99750.94;5079618;28;45329;-61
2022/04/22 05:26:14;;;;;;;;;5.00;4.75;;;;;20.92;33.30;99757.03;5079545;28;47030;-60
2022/04/22 05:28:39;;;;;;;;;3.00;3.00;;;;;20.92;33.83;99759.66;5079640;28;45503;-61
2022/04/22 05:33:50;;;;;;;;;3.75;3.75;;;;;20.91;33.77;99754.53;5079756;28;45417;-61
2022/04/22 05:36:15;;;;;;;;;3.00;3.00;;;;;20.90;33.50;99758.94;5079336;28;47002;-61
2022/04/22 05:38:41;;;;;;;;;5.00;4.50;;;;;20.93;33.43;99763.97;5079437;28;45334;-61
2022/04/22 05:41:06;;;;;;;;;3.50;3.50;;;;;20.93;33.42;99756.09;5079866;28;45380;-62
2022/04/22 05:43:32;;;;;;;;;1.75;1.75;;;;;20.94;33.94;99754.31;5079598;28;45605;-61
2022/04/22 05:45:58;;;;;;;;;4.00;4.00;;;;;20.92;33.40;99762.31;5079226;28;46335;-61
2022/04/22 05:48:24;;;;;;;;;5.75;4.00;;;;;20.93;33.83;99758.72;5079153;28;45288;-62
2022/04/22 05:50:50;;;;;;;;;5.25;4.75;;;;;20.93;33.93;99753.44;5079460;28;45180;-61
2022/04/22 05:53:16;;;;;;;;;6.25;5.00;;;;;20.92;33.43;99759.66;5079379;28;45334;-61
2022/04/22 05:55:42;;;;;;;;;5.00;5.00;;;;;20.92;33.56;99757.03;5079187;28;45402;-61
2022/04/22 05:58:07;;;;;;;;;4.00;4.00;;;;;20.94;33.67;99760.41;5079321;28;45382;-61
2022/04/22 06:00:33;;;;;;;;;7.50;6.00;;;;;20.94;33.82;99764.84;5079066;28;45419;-61
2022/04/22 06:02:59;;;;;;;;;4.00;4.00;;;;;20.94;33.26;99768.31;5079208;28;45516;-61
2022/04/22 06:05:26;;;;;;;;;5.00;4.00;;;;;20.95;33.48;99763.84;5078727;28;45398;-61
2022/04/22 06:10:38;;;;;;;;;4.00;4.00;;;;;20.93;33.95;99769.25;5079290;27;45261;-61
2022/04/22 06:13:04;;;;;;;;;6.00;4.00;;;;;20.92;33.89;99772.84;5079196;28;45232;-62
2022/04/22 06:15:29;;;;;;;;;4.50;4.50;;;;;20.95;33.59;99774.41;5078691;28;46193;-62
2022/04/22 06:17:56;;;;;;;;;5.25;5.25;;;;;20.94;34.13;99781.47;5078782;28;45319;-63
2022/04/22 06:20:22;;;;;;;;;4.00;4.00;;;;;20.94;33.83;99768.31;5078874;28;45366;-63
2022/04/22 06:22:47;;;;;;;;;6.00;4.75;;;;;20.95;33.45;99763.84;5077919;28;45345;-62
2022/04/22 06:25:14;;;;;;;;;5.50;5.00;;;;;20.96;33.93;99763.75;5078464;28;45414;-62
2022/04/22 06:27:42;;;;;;;;;5.50;4.00;;;;;20.96;34.15;99761.13;5078840;28;45767;-62
2022/04/22 06:30:13;;;;;;;;;4.50;4.50;;;;;20.96;34.06;99766.41;5079024;28;45345;-62
2022/04/22 06:32:40;;;;;;;;;6.50;5.00;;;;;20.95;33.58;99755.97;5079024;28;45505;-62
2022/04/22 06:35:07;;;;;;;;;5.75;4.00;;;;;20.97;33.71;99760.19;5078455;28;46156;-62
2022/04/22 06:37:38;;;;;;;;;4.50;4.50;;;;;20.96;34.05;99755.88;5060323;28;45796;-62
2022/04/22 06:45:47;;;;;;;;;5.50;5.50;;;;;20.99;34.32;99762.69;5078163;28;45898;-62
2022/04/22 06:48:34;;;;;;;;;6.00;5.00;;;;;20.98;34.23;99756.59;5078239;28;45320;-62
2022/04/22 06:51:01;;;;;;;;;6.75;5.00;;;;;20.98;33.86;99755.75;5078433;28;45424;-62
2022/04/22 06:53:27;;;;;;;;;5.25;4.50;;;;;20.99;33.96;99760.06;5078486;28;45413;-62
2022/04/22 06:55:54;;;;;;;;;5.50;4.25;;;;;20.98;34.17;99756.59;5078059;28;46241;-62
2022/04/22 06:58:21;;;;;;;;;8.00;6.00;;;;;20.99;34.46;99760.91;5077435;28;45499;-65
2022/04/22 07:00:47;;;;;;;;;10.00;8.50;;;;;20.97;34.58;99760.19;5077164;28;45276;-65
2022/04/22 07:03:16;;;;;;;;;9.50;8.25;;;;;20.91;34.48;99755.34;5078496;28;45536;-63
2022/04/22 07:05:44;;;;;;;;;7.00;7.00;;;;;20.91;34.94;99755.34;5059967;28;47175;-63
2022/04/22 07:08:14;;;;;;;;;10.00;8.75;;;;;20.89;34.86;99751.97;5078198;28;45983;-64
2022/04/22 07:10:43;;;;;;;;;10.75;7.75;;;;;20.93;35.14;99760.53;5077414;28;45322;-55
2022/04/22 07:13:10;;;;;;;;;8.50;6.25;;;;;20.97;34.80;99757.53;5077224;28;45492;-57
2022/04/22 07:15:36;;;;;;;;;10.75;8.00;;;;;21.00;35.30;99746.75;5077696;28;45993;-57
2022/04/22 07:18:02;;;;;;;;;9.50;8.00;;;;;21.05;34.90;99756.13;5059589;28;46765;-64
2022/04/22 07:20:28;;;;;;;;;7.75;7.75;;;;;21.06;35.40;99747.28;5059134;28;45688;-64
2022/04/22 07:22:53;;;;;;;;;8.25;7.25;;;;;21.03;34.82;99748.34;5077475;28;45509;-62
2022/04/22 07:25:20;;;;;;;;;8.00;6.25;;;;;21.01;34.61;99756.34;5077383;28;46082;-62
2022/04/22 07:27:49;;;;;;;;;7.00;7.00;;;;;20.99;34.92;99750.38;5077674;28;46037;-64
2022/04/22 07:30:17;;;;;;;;;8.00;6.00;;;;;20.99;35.32;99753.00;5059606;28;45524;-61
2022/04/22 07:32:47;;;;;;;;;9.50;7.25;;;;;20.96;34.58;99752.38;5077402;28;45153;-61
2022/04/22 07:35:15;;;;;;;;;6.25;6.25;;;;;20.94;34.96;99755.13;5060051;28;46172;-62
2022/04/22 07:37:45;;;;;;;;;9.00;8.50;;;;;20.91;35.14;99752.72;5077944;28;45268;-62
2022/04/22 07:40:11;;;;;;;;;9.50;9.50;;;;;20.88;34.98;99738.94;5077448;28;45509;-62
2022/04/22 07:42:37;;;;;;;;;8.00;7.25;;;;;20.86;34.58;99752.22;5077685;28;45596;-61
2022/04/22 07:47:49;;;;;;;;;7.50;7.50;;;;;20.83;34.64;99742.78;5077273;28;45328;-62
2022/04/22 07:50:17;;;;;;;;;10.75;7.75;;;;;20.84;34.75;99746.22;5077699;28;45452;-61
2022/04/22 07:52:44;;;;;;;;;7.00;6.50;;;;;20.81;34.73;99744.69;5077764;28;45564;-61
2022/04/22 07:55:11;;;;;;;;;8.00;7.50;;;;;20.83;35.09;99741.91;5077161;28;45442;-61
2022/04/22 07:57:36;;;;;;;;;7.00;7.00;;;;;20.82;34.67;99741.09;5058881;28;45296;-61
2022/04/22 08:00:03;;;;;;;;;9.00;9.00;;;;;20.80;34.77;99743.00;5077168;28;45417;-61
2022/04/22 08:02:29;;;;;;;;;8.00;8.00;;;;;20.76;34.67;99745.97;5077393;28;45353;-60
2022/04/22 08:04:54;;;;;;;;;7.50;7.50;;;;;20.75;34.49;99744.28;5058488;28;47961;-59
2022/04/22 08:07:19;;;;;;;;;7.50;7.00;;;;;20.75;35.00;99747.75;5077188;28;45390;-62
2022/04/22 08:09:45;;;;;;;;;9.25;7.50;;;;;20.74;34.57;99747.84;5077410;28;45331;-61
2022/04/22 08:12:12;;;;;;;;;7.25;7.25;;;;;20.74;34.54;99745.19;5076931;28;45608;-60
2022/04/22 08:14:38;;;;;;;;;6.75;6.75;;;;;20.76;34.49;99746.78;5076831;28;46292;-60
2022/04/22 08:17:03;;;;;;;;;9.00;7.75;;;;;20.75;34.74;99749.56;5076985;28;45316;-62
2022/04/22 08:19:29;;;;;;;;;9.25;8.00;;;;;20.75;34.49;99745.13;5076929;28;45268;-62
2022/04/22 08:21:54;;;;;;;;;11.00;9.25;;;;;20.73;34.48;99738.25;5077051;28;45224;-61
2022/04/22 08:24:19;;;;;;;;;8.50;8.25;;;;;20.70;34.59;99737.53;5076556;28;46560;-62
2022/04/22 08:26:46;;;;;;;;;6.00;6.00;;;;;20.72;34.79;99733.94;5077106;28;45460;-62
2022/04/22 08:29:11;;;;;;;;;8.50;8.50;;;;;20.70;34.39;99732.25;5075917;28;45547;-60
2022/04/22 08:31:37;;;;;;;;;8.00;6.50;;;;;20.72;34.47;99724.25;5076188;28;45552;-61
2022/04/22 08:34:02;;;;;;;;;6.00;6.00;;;;;20.73;34.56;99730.34;5073105;28;45997;-60
2022/04/22 08:36:29;;;;;;;;;7.75;7.50;;;;;20.74;34.84;99725.00;5075529;28;45662;-60
2022/04/22 08:38:55;;;;;;;;;7.50;7.50;;;;;20.76;34.38;99731.00;5075991;28;46172;-61
2022/04/22 08:41:23;;;;;;;;;8.00;7.00;;;;;20.77;34.65;99726.59;5075771;28;45684;-60
2022/04/22 08:43:52;;;;;;;;;8.25;8.00;;;;;20.76;34.22;99715.19;5075373;28;45524;-61
2022/04/22 08:51:47;;;;;;;;;7.75;7.75;;;;;20.77;33.83;99714.25;5073666;28;45379;-60
2022/04/22 08:54:14;;;;;;;;;7.25;7.00;;;;;20.74;33.61;99711.84;5075599;28;46512;-60
2022/04/22 08:56:40;;;;;;;;;7.50;6.00;;;;;20.73;34.24;99707.47;5075584;28;45358;-60
2022/04/22 08:59:05;;;;;;;;;6.00;6.00;;;;;20.74;33.83;99713.59;5075552;28;45770;-59
2022/04/22 09:01:31;;;;;;;;;8.00;8.00;;;;;20.69;34.00;99708.69;5075772;27;45368;-59
2022/04/22 09:03:56;;;;;;;;;9.00;9.00;;;;;20.76;33.77;99709.09;5075251;28;45290;-60
2022/04/22 09:06:25;;;;;;;;;6.25;6.25;;;;;20.76;34.23;99709.94;5075266;28;45268;-59
2022/04/22 09:08:51;;;;;;;;;7.00;7.00;;;;;20.77;33.93;99706.34;5075619;28;45525;-62
2022/04/22 09:11:17;;;;;;;;;8.00;7.50;;;;;20.79;34.33;99714.13;5075917;28;45683;-62
2022/04/22 09:13:42;;;;;;;;;7.25;7.25;;;;;20.78;33.80;99707.19;5075242;28;46142;-61
2022/04/22 09:16:18;;;;;;;;;9.50;9.50;;;;;20.76;33.74;99698.56;5075211;28;45402;-62
2022/04/22 09:18:45;;;;;;;;;8.25;8.25;;;;;20.78;33.74;99704.56;5070166;28;45314;-61
2022/04/22 09:21:15;;;;;;;;;7.50;6.25;;;;;20.81;34.06;99709.59;5058360;28;45581;-60
2022/04/22 09:23:40;;;;;;;;;9.00;7.25;;;;;20.78;33.47;99702.75;5076002;28;46644;-60
2022/04/22 09:26:20;;;;;;;;;6.00;6.00;;;;;20.82;33.79;99708.63;5076154;28;45433;-60
2022/04/22 09:28:59;;;;;;;;;5.50;5.50;;;;;20.83;33.63;99705.06;5076647;28;45365;-60
2022/04/22 09:31:25;;;;;;;;;10.75;8.25;;;;;20.85;34.06;99696.06;5076267;28;45390;-61
2022/04/22 09:33:51;;;;;;;;;6.50;6.25;;;;;20.89;34.16;99699.31;5076253;28;46949;-58
2022/04/22 09:45:08;;;;;;;;;6.75;6.00;;;;;20.96;33.82;99702.31;5075556;28;45532;-64
2022/04/22 09:47:35;;;;;;;;;8.00;7.00;;;;;20.95;34.25;99696.22;5075932;28;45855;-63
2022/04/22 09:50:11;;;;;;;;;10.00;8.00;;;;;20.96;33.88;99694.41;5075984;28;45177;-61
2022/04/22 09:52:46;;;;;;;;;8.00;8.00;;;;;20.96;34.02;99690.00;5076029;28;45335;-65
2022/04/22 09:55:15;;;;;;;;;6.00;6.00;;;;;20.96;34.05;99695.28;5072867;28;46192;-59
2022/04/22 09:57:52;;;;;;;;;8.25;6.00;;;;;20.97;34.14;99691.69;5078209;27;45469;-63
2022/04/22 10:00:19;;;;;;;;;8.00;8.00;;;;;20.97;33.74;99685.56;5082611;27;45285;-66
2022/04/22 10:02:50;;;;;;;;;9.00;6.00;;;;;20.96;33.88;99681.25;5075234;28;45346;-65
2022/04/22 10:05:21;;;;;;;;;7.50;7.50;;;;;20.99;34.32;99688.94;5077946;28;46023;-63
2022/04/22 10:07:52;;;;;;;;;6.75;6.75;;;;;20.99;33.94;99679.25;5070424;28;45403;-60
2022/04/22 10:10:23;;;;;;;;;8.00;6.25;;;;;20.99;33.93;99683.66;5076499;28;45797;-68
2022/04/22 10:12:49;;;;;;;;;7.25;6.50;;;;;20.98;33.27;99669.66;5078935;28;45363;-66
2022/04/22 10:15:19;;;;;;;;;10.25;7.00;;;;;20.99;33.54;99667.84;5078649;28;47412;-67
2022/04/22 10:17:46;;;;;;;;;7.25;6.25;;;;;20.97;33.70;99678.53;5078584;28;45307;-70
2022/04/22 10:20:12;;;;;;;;;7.00;7.00;;;;;20.96;33.60;99661.03;5078853;28;45391;-69
2022/04/22 10:22:37;;;;;;;;;7.25;7.25;;;;;20.98;33.21;99674.94;5078860;28;45521;-71
2022/04/22 10:25:04;;;;;;;;;8.75;8.25;;;;;20.96;32.90;99666.31;5078652;28;45449;-71
2022/04/22 10:27:34;;;;;;;;;5.75;5.75;;;;;20.95;32.94;99662.00;5078435;28;45904;-72
2022/04/22 10:30:00;;;;;;;;;7.50;6.50;;;;;20.98;33.13;99672.31;5078647;28;45519;-70
2022/04/22 10:32:27;;;;;;;;;6.00;6.00;;;;;20.94;33.20;99655.03;5078888;28;45300;-72
2022/04/22 10:34:59;;;;;;;;;6.50;5.25;;;;;20.98;32.82;99660.91;5078186;28;45331;-69
2022/04/22 10:37:26;;;;;;;;;6.00;6.00;;;;;20.97;32.98;99661.88;5077020;28;45800;-70
2022/04/22 10:39:54;;;;;;;;;36.00;33.25;;;;;20.96;32.41;99655.78;5078859;28;45441;-74
2022/04/22 10:42:29;;;;;;;;;50.25;34.50;;;;;20.98;32.49;99668.81;5078817;28;45623;-68
2022/04/22 10:47:43;;;;;;;;;46.50;36.50;;;;;20.94;32.61;99657.69;5078342;28;45873;-68
2022/04/22 10:50:32;;;;;;;;;31.25;30.75;;;;;20.92;32.26;99651.69;5078559;28;45280;-68
2022/04/22 10:53:34;;;;;;;;;42.50;33.00;;;;;20.93;32.38;99652.53;5078716;28;45347;-68
2022/04/22 10:56:33;;;;;;;;;45.25;34.25;;;;;20.94;32.88;99646.31;5035444;28;46078;-72
2022/04/22 10:59:16;;;;;;;;;46.75;37.75;;;;;20.94;33.01;99649.78;5078234;27;45388;-69
2022/04/22 11:01:43;;;;;;;;;45.50;34.75;;;;;20.94;32.48;99647.13;5078345;27;45493;-70
2022/04/22 11:04:31;;;;;;;;;49.50;33.75;;;;;20.98;32.66;99634.56;5060325;28;45601;-70
2022/04/22 11:06:57;;;;;;;;;41.75;35.50;;;;;20.98;32.79;99635.44;5077999;28;47106;-69
2022/04/22 11:09:30;;;;;;;;;39.50;33.25;;;;;21.01;33.06;99635.16;5077744;27;45294;-71
2022/04/22 11:11:58;;;;;;;;;29.75;24.25;;;;;21.03;32.41;99648.25;5060019;28;45564;-67
2022/04/22 11:14:26;;;;;;;;;31.25;29.25;;;;;21.03;32.32;99642.13;5078722;28;45418;-69
2022/04/22 11:16:54;;;;;;;;;39.25;27.25;;;;;21.04;32.82;99636.75;5078090;28;46079;-69
2022/04/22 11:19:19;;;;;;;;;30.50;25.75;;;;;21.04;32.31;99649.06;5059822;28;45410;-66
2022/04/22 11:21:47;;;;;;;;;25.00;20.00;;;;;21.01;32.34;99648.34;5077893;28;45337;-67
2022/04/22 11:24:30;;;;;;;;;27.50;21.75;;;;;21.03;32.60;99642.13;5077848;28;45326;-68
2022/04/22 11:27:06;;;;;;;;;26.50;23.75;;;;;21.01;32.41;99635.16;5078024;28;45457;-71
2022/04/22 11:29:31;;;;;;;;;21.75;18.75;;;;;21.01;32.41;99632.53;5059096;28;45372;-69
2022/04/22 11:32:17;;;;;;;;;22.50;18.75;;;;;21.01;32.21;99632.53;5077601;27;45228;-68
2022/04/22 11:34:48;;;;;;;;;23.50;17.25;;;;;21.03;32.22;99626.31;5077867;28;45446;-67
2022/04/22 11:37:21;;;;;;;;;22.25;21.00;;;;;21.04;32.10;99633.25;5059100;28;46377;-70
2022/04/22 11:39:48;;;;;;;;;18.50;17.00;;;;;21.06;32.03;99631.34;5059509;28;45472;-62
2022/04/22 11:42:15;;;;;;;;;22.25;18.50;;;;;21.06;32.14;99631.34;5077537;28;45402;-60
2022/04/22 11:44:40;;;;;;;;;19.50;16.25;;;;;21.07;33.16;99623.31;5077532;28;45552;-63
2022/04/22 11:47:06;;;;;;;;;14.75;12.25;;;;;21.10;33.13;99622.28;5077448;28;46536;-61
2022/04/22 11:49:32;;;;;;;;;15.00;12.75;;;;;21.12;34.14;99620.34;5077526;28;45367;-61
2022/04/22 11:51:59;;;;;;;;;13.75;11.25;;;;;21.13;33.40;99619.38;5059242;28;45268;-58
2022/04/22 11:54:25;;;;;;;;;12.75;10.25;;;;;21.13;33.78;99617.59;5077937;27;45605;-59
2022/04/22 11:56:51;;;;;;;;;8.50;8.25;;;;;21.15;34.06;99614.84;5076728;28;46339;-58
2022/04/22 11:59:23;;;;;;;;;10.00;8.25;;;;;21.14;34.37;99616.66;5076807;28;45953;-58
2022/04/22 12:05:32;;;;;;;;;9.00;7.75;;;;;21.10;34.37;99614.38;5077449;28;45189;-59
2022/04/22 12:10:11;;;;;;;;;7.25;6.75;;;;;21.05;33.89;99609.47;5077203;28;46055;-58
2022/04/22 12:12:46;;;;;;;;;7.50;7.50;;;;;21.02;34.16;99609.69;5076830;28;45285;-58
2022/04/22 12:15:11;;;;;;;;;8.00;8.00;;;;;21.00;34.17;99612.41;5076923;28;45335;-58
2022/04/22 12:17:37;;;;;;;;;9.25;7.50;;;;;20.97;33.86;99601.28;5076865;28;45362;-58
2022/04/22 12:20:03;;;;;;;;;7.00;7.00;;;;;20.97;34.49;99596.88;5076202;28;45166;-62
2022/04/22 12:22:31;;;;;;;;;7.00;7.00;;;;;20.95;34.13;99592.66;5076881;27;45300;-58
2022/04/22 12:25:05;;;;;;;;;7.00;7.00;;;;;20.92;34.33;99596.38;5077498;28;45409;-59
2022/04/22 12:27:31;;;;;;;;;5.75;5.00;;;;;20.91;33.86;99599.97;5058393;28;47768;-58
2022/04/22 12:30:04;;;;;;;;;5.75;5.75;;;;;20.89;33.87;99588.69;5058912;28;45264;-59
2022/04/22 12:32:32;;;;;;;;;6.00;6.00;;;;;20.88;34.43;99592.31;5058588;28;45241;-58
2022/04/22 12:35:14;;;;;;;;;7.00;7.00;;;;;20.88;34.22;99587.03;5077145;28;45322;-59
2022/04/22 12:37:51;;;;;;;;;8.50;7.75;;;;;20.88;34.54;99579.16;5076565;28;46111;-58